createdAt,value
2018-11-05T00:01:23.754Z,19.90
2018-11-05T00:03:50.452Z,19.91
2018-11-05T00:06:17.103Z,19.90
2018-11-05T00:08:43.934Z,19.87
2018-11-05T00:11:10.586Z,19.88
2018-11-05T00:13:38.677Z,19.88
2018-11-05T00:16:04.011Z,19.84
2018-11-05T00:18:30.698Z,19.85
2018-11-05T00:20:57.463Z,19.81
2018-11-05T00:23:24.222Z,19.83
2018-11-05T00:25:53.018Z,19.82
2018-11-05T00:28:22.542Z,19.85
2018-11-05T00:30:49.317Z,19.84
2018-11-05T00:33:16.053Z,19.82
2018-11-05T00:35:42.762Z,19.82
2018-11-05T00:38:09.456Z,19.82
2018-11-05T00:40:40.242Z,19.79
2018-11-05T00:43:05.453Z,19.79
2018-11-05T00:45:32.189Z,19.78
2018-11-05T00:48:02.142Z,19.77
2018-11-05T00:50:28.858Z,19.77
2018-11-05T00:52:55.550Z,19.77
2018-11-05T00:55:22.261Z,19.75
2018-11-05T00:57:49.078Z,19.77
2018-11-05T01:00:15.789Z,19.77
2018-11-05T01:02:42.484Z,19.79
2018-11-05T01:05:09.179Z,19.77
2018-11-05T01:07:36.859Z,19.75
2018-11-05T01:10:03.546Z,19.74
2018-11-05T01:12:30.186Z,19.74
2018-11-05T01:14:58.131Z,19.74
2018-11-05T01:17:23.577Z,19.71
2018-11-05T01:19:50.297Z,19.69
2018-11-05T01:22:16.998Z,19.70
2018-11-05T01:24:43.683Z,19.69
2018-11-05T01:27:10.418Z,19.73
2018-11-05T01:29:37.129Z,19.71
2018-11-05T01:32:03.869Z,19.70
2018-11-05T01:34:30.573Z,19.73
2018-11-05T01:36:57.271Z,19.68
2018-11-05T01:39:25.226Z,19.67
2018-11-05T01:41:50.658Z,19.66
2018-11-05T01:44:17.303Z,19.65
2018-11-05T01:46:43.979Z,19.65
2018-11-05T01:49:11.325Z,19.66
2018-11-05T01:51:37.930Z,19.65
2018-11-05T01:54:04.635Z,19.66
2018-11-05T01:56:31.368Z,19.65
2018-11-05T01:58:57.965Z,19.63
2018-11-05T02:01:24.611Z,19.61
2018-11-05T02:03:51.314Z,19.63
2018-11-05T02:06:18.071Z,19.60
2018-11-05T02:08:46.161Z,19.63
2018-11-05T02:11:11.401Z,19.63
2018-11-05T02:13:38.092Z,19.60
2018-11-05T02:16:04.802Z,19.63
2018-11-05T02:18:34.667Z,19.58
2018-11-05T02:21:01.312Z,19.58
2018-11-05T02:23:28.026Z,19.59
2018-11-05T02:25:54.841Z,19.57
2018-11-05T02:28:21.483Z,19.57
2018-11-05T02:30:48.291Z,19.56
2018-11-05T02:33:16.078Z,19.57
2018-11-05T02:35:41.566Z,19.56
2018-11-05T02:38:09.664Z,19.52
2018-11-05T02:40:34.920Z,19.54
2018-11-05T02:43:01.567Z,19.54
2018-11-05T02:45:28.258Z,19.52
2018-11-05T02:47:54.895Z,19.52
2018-11-05T02:50:21.607Z,19.53
2018-11-05T02:52:48.311Z,19.51
2018-11-05T02:55:14.950Z,19.52
2018-11-05T02:57:41.638Z,19.51
2018-11-05T03:00:08.268Z,19.52
2018-11-05T03:02:34.959Z,19.49
2018-11-05T03:05:01.735Z,19.48
2018-11-05T03:07:28.373Z,19.49
2018-11-05T03:09:55.023Z,19.47
2018-11-05T03:12:21.718Z,19.48
2018-11-05T03:14:48.377Z,19.49
2018-11-05T03:17:15.374Z,19.44
2018-11-05T03:19:42.021Z,19.46
2018-11-05T03:22:08.812Z,19.47
2018-11-05T03:24:35.484Z,19.44
2018-11-05T03:27:02.154Z,19.44
2018-11-05T03:29:28.891Z,19.43
2018-11-05T03:31:55.522Z,19.43
2018-11-05T03:34:22.303Z,19.42
2018-11-05T03:36:49.184Z,19.39
2018-11-05T03:39:15.906Z,19.39
2018-11-05T03:41:42.539Z,19.41
2018-11-05T03:44:09.228Z,19.42
2018-11-05T03:46:35.923Z,19.39
2018-11-05T03:49:03.966Z,19.38
2018-11-05T03:51:29.261Z,19.36
2018-11-05T03:53:55.947Z,19.33
2018-11-05T03:56:22.691Z,19.33
2018-11-05T03:58:49.278Z,19.33
2018-11-05T04:01:15.930Z,19.33
2018-11-05T04:03:42.619Z,19.32
2018-11-05T04:06:09.263Z,19.38
2018-11-05T04:08:35.959Z,19.26
2018-11-05T04:11:02.702Z,19.23
2018-11-05T04:13:30.707Z,18.83
2018-11-05T04:15:56.082Z,18.81
2018-11-05T04:18:24.194Z,18.87
2018-11-05T04:20:49.408Z,19.08
2018-11-05T04:23:16.206Z,19.03
2018-11-05T04:25:42.945Z,19.01
2018-11-05T04:28:09.639Z,18.88
2018-11-05T04:30:36.279Z,18.89
2018-11-05T04:33:02.963Z,19.05
2018-11-05T04:35:29.706Z,19.28
2018-11-05T04:37:56.486Z,19.63
2018-11-05T04:40:23.144Z,19.85
2018-11-05T04:42:49.931Z,20.00
2018-11-05T04:45:16.585Z,20.15
2018-11-05T04:47:43.287Z,20.39
2018-11-05T04:50:09.935Z,20.45
2018-11-05T04:52:36.583Z,20.48
2018-11-05T04:55:03.336Z,20.60
2018-11-05T04:57:29.977Z,20.69
2018-11-05T04:59:56.676Z,20.80
2018-11-05T05:02:23.594Z,20.87
2018-11-05T05:04:50.273Z,20.95
2018-11-05T05:07:20.347Z,21.04
2018-11-05T05:09:46.981Z,21.14
2018-11-05T05:12:19.223Z,21.18
2018-11-05T05:14:46.446Z,21.20
2018-11-05T05:17:13.086Z,21.26
2018-11-05T05:19:39.861Z,21.34
2018-11-05T05:22:06.539Z,21.41
2018-11-05T05:24:33.503Z,21.46
2018-11-05T05:27:00.245Z,21.64
2018-11-05T05:29:28.192Z,21.64
2018-11-05T05:31:53.669Z,21.82
2018-11-05T05:34:20.363Z,21.84
2018-11-05T05:36:48.071Z,21.95
2018-11-05T05:39:14.803Z,22.13
2018-11-05T05:41:42.851Z,22.10
2018-11-05T05:44:09.544Z,22.24
2018-11-05T05:46:34.808Z,22.39
2018-11-05T05:49:01.447Z,22.37
2018-11-05T05:51:28.130Z,22.38
2018-11-05T05:53:56.161Z,22.50
2018-11-05T05:56:21.522Z,22.55
2018-11-05T05:58:48.130Z,22.62
2018-11-05T06:01:14.832Z,22.69
2018-11-05T06:03:41.527Z,22.74
2018-11-05T06:06:08.298Z,22.80
2018-11-05T06:08:37.806Z,22.87
2018-11-05T06:11:04.466Z,22.85
2018-11-05T06:13:31.217Z,22.83
2018-11-05T06:15:57.933Z,22.80
2018-11-05T06:18:24.606Z,22.88
2018-11-05T06:20:51.254Z,22.83
2018-11-05T06:23:17.995Z,22.91
2018-11-05T06:25:44.750Z,22.99
2018-11-05T06:28:11.774Z,23.00
2018-11-05T06:30:38.553Z,23.09
2018-11-05T06:33:05.164Z,23.40
2018-11-05T06:35:31.875Z,23.61
2018-11-05T06:37:58.600Z,23.70
2018-11-05T06:40:26.585Z,23.88
2018-11-05T06:42:51.935Z,24.08
2018-11-05T06:45:18.727Z,24.18
2018-11-05T06:47:45.339Z,24.34
2018-11-05T06:50:12.080Z,24.55
2018-11-05T06:52:38.699Z,24.67
2018-11-05T06:55:05.396Z,24.76
2018-11-05T06:57:32.152Z,24.68
2018-11-05T06:59:58.777Z,24.80
2018-11-05T07:02:37.743Z,24.79
2018-11-05T07:05:04.348Z,24.81
2018-11-05T07:07:30.999Z,24.94
2018-11-05T07:09:57.908Z,24.86
2018-11-05T07:12:24.601Z,24.94
2018-11-05T07:14:51.404Z,25.06
2018-11-05T07:17:20.670Z,25.14
2018-11-05T07:19:47.203Z,25.01
2018-11-05T07:22:13.872Z,24.96
2018-11-05T07:24:40.578Z,25.01
2018-11-05T07:27:07.254Z,24.92
2018-11-05T07:29:33.955Z,24.60
2018-11-05T07:32:00.790Z,24.38
2018-11-05T07:34:27.509Z,24.61
2018-11-05T07:36:54.229Z,24.83
2018-11-05T07:39:21.610Z,25.13
2018-11-05T07:41:49.260Z,25.22
2018-11-05T07:44:16.008Z,25.12
2018-11-05T07:46:42.722Z,25.25
2018-11-05T07:49:09.364Z,25.25
2018-11-05T07:51:36.150Z,25.24
2018-11-05T07:54:04.253Z,25.31
2018-11-05T07:56:30.803Z,25.37
2018-11-05T07:58:57.440Z,25.24
2018-11-05T08:01:24.134Z,25.34
2018-11-05T08:03:50.770Z,25.34
2018-11-05T08:06:17.462Z,25.34
2018-11-05T08:08:44.181Z,25.30
2018-11-05T08:11:10.875Z,25.24
2018-11-05T08:13:37.627Z,25.39
2018-11-05T08:16:04.302Z,25.41
2018-11-05T08:18:30.970Z,25.49
2018-11-05T08:21:00.419Z,25.47
2018-11-05T08:23:27.085Z,25.42
2018-11-05T08:25:53.815Z,25.42
2018-11-05T08:28:20.563Z,25.53
2018-11-05T08:30:47.572Z,25.43
2018-11-05T08:33:14.266Z,25.48
2018-11-05T08:35:40.991Z,25.55
2018-11-05T08:38:07.725Z,25.58
2018-11-05T08:40:34.478Z,25.59
2018-11-05T08:43:03.977Z,25.63
2018-11-05T08:45:30.638Z,25.68
2018-11-05T08:47:57.299Z,25.56
2018-11-05T08:50:24.180Z,25.41
2018-11-05T08:52:50.766Z,25.45
2018-11-05T08:55:17.567Z,25.47
2018-11-05T08:57:48.681Z,25.49
2018-11-05T09:00:14.997Z,25.49
2018-11-05T09:02:41.609Z,25.53
2018-11-05T09:05:10.570Z,25.44
2018-11-05T09:07:37.240Z,25.49
2018-11-05T09:10:04.024Z,25.47
2018-11-05T09:12:30.655Z,25.57
2018-11-05T09:14:57.434Z,25.49
2018-11-05T09:17:24.134Z,25.47
2018-11-05T09:19:53.111Z,25.35
2018-11-05T09:22:17.613Z,25.47
2018-11-05T09:24:44.341Z,25.38
2018-11-05T09:27:11.065Z,25.54
2018-11-05T09:29:37.819Z,25.39
2018-11-05T09:32:04.617Z,25.45
2018-11-05T09:34:31.346Z,25.31
2018-11-05T09:36:58.089Z,25.23
2018-11-05T09:39:24.688Z,25.14
2018-11-05T09:41:51.523Z,25.11
2018-11-05T09:44:18.191Z,25.30
2018-11-05T09:46:44.853Z,25.22
2018-11-05T09:49:11.561Z,25.41
2018-11-05T09:51:38.199Z,25.40
2018-11-05T09:54:04.961Z,25.60
2018-11-05T09:56:31.783Z,25.70
2018-11-05T09:58:58.475Z,25.64
2018-11-05T10:01:25.294Z,25.70
2018-11-05T10:03:52.143Z,25.72
2018-11-05T10:06:18.818Z,25.67
2018-11-05T10:08:45.543Z,25.59
2018-11-05T10:11:12.241Z,25.40
2018-11-05T10:13:38.886Z,25.49
2018-11-05T10:16:05.648Z,25.46
2018-11-05T10:18:32.412Z,25.56
2018-11-05T10:20:59.047Z,25.48
2018-11-05T10:23:25.772Z,25.47
2018-11-05T10:25:55.395Z,25.67
2018-11-05T10:28:22.040Z,25.39
2018-11-05T10:30:48.772Z,25.18
2018-11-05T10:33:15.512Z,25.21
2018-11-05T10:35:42.112Z,25.01
2018-11-05T10:38:08.903Z,25.11
2018-11-05T10:40:35.722Z,25.28
2018-11-05T10:43:02.461Z,25.29
2018-11-05T10:45:29.123Z,25.34
2018-11-05T10:47:55.780Z,25.35
2018-11-05T10:50:25.561Z,25.33
2018-11-05T10:52:52.140Z,25.28
2018-11-05T10:55:18.890Z,25.44
2018-11-05T10:57:45.563Z,25.36
2018-11-05T11:00:12.260Z,25.48
2018-11-05T11:02:38.977Z,25.39
2018-11-05T11:05:05.739Z,25.46
2018-11-05T11:07:32.420Z,25.44
2018-11-05T11:09:59.131Z,25.45
2018-11-05T11:12:25.870Z,25.65
2018-11-05T11:14:52.532Z,25.56
2018-11-05T11:17:19.211Z,25.59
2018-11-05T11:19:46.277Z,25.57
2018-11-05T11:22:14.467Z,25.55
2018-11-05T11:24:39.677Z,25.73
2018-11-05T11:27:06.391Z,25.78
2018-11-05T11:29:33.125Z,25.78
2018-11-05T11:31:59.852Z,25.67
2018-11-05T11:34:26.458Z,25.69
2018-11-05T11:36:53.238Z,25.71
2018-11-05T11:39:19.907Z,25.72
2018-11-05T11:41:46.607Z,25.80
2018-11-05T11:44:13.419Z,25.67
2018-11-05T11:46:40.113Z,25.67
2018-11-05T11:49:07.641Z,25.81
2018-11-05T11:51:34.313Z,25.74
2018-11-05T11:54:03.749Z,25.81
2018-11-05T11:56:30.375Z,25.84
2018-11-05T11:58:57.045Z,25.97
2018-11-05T12:01:23.711Z,25.89
2018-11-05T12:03:50.365Z,25.77
2018-11-05T12:06:17.142Z,25.72
2018-11-05T12:08:43.782Z,25.68
2018-11-05T12:11:10.433Z,25.73
2018-11-05T12:13:38.467Z,25.65
2018-11-05T12:16:03.831Z,25.53
2018-11-05T12:18:33.672Z,25.43
2018-11-05T12:21:00.379Z,25.35
2018-11-05T12:23:30.301Z,25.33
2018-11-05T12:25:56.959Z,25.27
2018-11-05T12:28:23.781Z,25.24
2018-11-05T12:30:51.814Z,25.16
2018-11-05T12:33:17.183Z,25.26
2018-11-05T12:35:43.898Z,25.14
2018-11-05T12:38:10.658Z,25.12
2018-11-05T12:40:37.407Z,25.00
2018-11-05T12:43:06.226Z,24.98
2018-11-05T12:45:30.747Z,24.96
2018-11-05T12:47:57.411Z,24.92
2018-11-05T12:50:24.407Z,24.85
2018-11-05T12:52:52.076Z,24.87
2018-11-05T12:55:17.758Z,24.75
2018-11-05T12:57:44.483Z,24.52
2018-11-05T13:00:11.283Z,24.47
2018-11-05T13:02:38.057Z,24.73
2018-11-05T13:05:04.743Z,24.45
2018-11-05T13:07:31.717Z,24.42
2018-11-05T13:10:01.233Z,24.27
2018-11-05T13:12:27.871Z,24.24
2018-11-05T13:14:57.755Z,24.12
2018-11-05T13:17:24.401Z,23.94
2018-11-05T13:19:51.047Z,24.00
2018-11-05T13:22:18.018Z,24.10
2018-11-05T13:24:44.457Z,24.08
2018-11-05T13:27:11.143Z,23.92
2018-11-05T13:29:37.869Z,24.02
2018-11-05T13:32:06.177Z,24.08
2018-11-05T13:34:31.243Z,23.97
2018-11-05T13:36:57.909Z,23.91
2018-11-05T13:39:24.544Z,24.02
2018-11-05T13:41:51.331Z,24.15
2018-11-05T13:44:18.034Z,24.12
2018-11-05T13:46:46.210Z,24.27
2018-11-05T13:49:11.920Z,24.19
2018-11-05T13:51:38.244Z,24.37
2018-11-05T13:54:05.046Z,24.27
2018-11-05T13:56:31.699Z,24.26
2018-11-05T13:58:58.322Z,24.27
2018-11-05T14:01:27.232Z,24.32
2018-11-05T14:03:51.818Z,24.31
2018-11-05T14:06:18.436Z,24.26
2018-11-05T14:08:45.226Z,24.32
2018-11-05T14:11:11.801Z,24.26
2018-11-05T14:13:38.492Z,24.13
2018-11-05T14:16:05.131Z,24.21
2018-11-05T14:18:31.829Z,24.21
2018-11-05T14:20:58.524Z,24.18
2018-11-05T14:23:25.230Z,24.33
2018-11-05T14:25:52.031Z,24.34
2018-11-05T14:28:18.988Z,24.26
2018-11-05T14:30:46.809Z,24.21
2018-11-05T14:33:12.219Z,24.43
2018-11-05T14:35:38.864Z,24.37
2018-11-05T14:38:05.700Z,24.30
2018-11-05T14:40:32.301Z,24.31
2018-11-05T14:42:59.154Z,24.29
2018-11-05T14:45:27.843Z,24.35
2018-11-05T14:47:54.644Z,24.31
2018-11-05T14:50:21.572Z,24.10
2018-11-05T14:52:50.341Z,24.03
2018-11-05T14:55:16.989Z,24.30
2018-11-05T14:57:43.729Z,23.99
2018-11-05T15:00:10.456Z,23.92
2018-11-05T15:02:37.186Z,23.84
2018-11-05T15:05:03.782Z,23.82
2018-11-05T15:07:30.520Z,23.81
2018-11-05T15:09:57.217Z,23.85
2018-11-05T15:12:24.105Z,23.67
2018-11-05T15:14:50.934Z,23.66
2018-11-05T15:17:18.962Z,23.62
2018-11-05T15:19:44.720Z,23.60
2018-11-05T15:22:14.647Z,23.54
2018-11-05T15:24:41.707Z,23.63
2018-11-05T15:27:08.492Z,23.63
2018-11-05T15:29:35.164Z,23.63
2018-11-05T15:32:01.921Z,23.66
2018-11-05T15:34:28.559Z,23.66
2018-11-05T15:36:55.338Z,23.49
2018-11-05T15:39:22.032Z,23.56
2018-11-05T15:41:48.675Z,23.50
2018-11-05T15:44:15.904Z,23.48
2018-11-05T15:46:44.650Z,23.48
2018-11-05T15:49:09.336Z,23.40
2018-11-05T15:51:36.180Z,23.35
2018-11-05T15:54:02.758Z,23.33
2018-11-05T15:56:29.351Z,23.30
2018-11-05T15:58:56.152Z,23.58
2018-11-05T16:01:25.908Z,23.42
2018-11-05T16:03:53.699Z,23.27
2018-11-05T16:06:20.419Z,23.18
2018-11-05T16:08:47.086Z,23.14
2018-11-05T16:11:13.784Z,23.24
2018-11-05T16:13:40.504Z,23.15
2018-11-05T16:16:07.137Z,23.08
2018-11-05T16:18:33.969Z,23.08
2018-11-05T16:21:00.635Z,23.10
2018-11-05T16:23:27.279Z,23.08
2018-11-05T16:25:54.054Z,23.07
2018-11-05T16:28:20.668Z,23.07
2018-11-05T16:30:47.494Z,23.03
2018-11-05T16:33:14.059Z,22.95
2018-11-05T16:35:40.825Z,22.98
2018-11-05T16:38:07.457Z,23.04
2018-11-05T16:40:34.153Z,22.94
2018-11-05T16:43:00.806Z,23.04
2018-11-05T16:45:27.584Z,22.88
2018-11-05T16:47:54.223Z,22.93
2018-11-05T16:50:20.924Z,22.84
2018-11-05T16:52:47.615Z,22.86
2018-11-05T16:55:14.403Z,22.83
2018-11-05T16:57:41.147Z,22.84
2018-11-05T17:00:09.104Z,22.83
2018-11-05T17:02:35.986Z,22.79
2018-11-05T17:05:02.408Z,22.83
2018-11-05T17:07:29.602Z,22.80
2018-11-05T17:09:59.648Z,22.75
2018-11-05T17:12:26.336Z,22.78
2018-11-05T17:14:53.033Z,22.77
2018-11-05T17:17:19.679Z,22.73
2018-11-05T17:19:46.378Z,22.70
2018-11-05T17:22:13.093Z,22.63
2018-11-05T17:24:39.837Z,22.65
2018-11-05T17:27:06.535Z,22.66
2018-11-05T17:29:33.179Z,22.64
2018-11-05T17:31:59.878Z,22.61
2018-11-05T17:34:26.560Z,22.57
2018-11-05T17:36:54.286Z,22.53
2018-11-05T17:39:20.909Z,22.55
2018-11-05T17:41:47.551Z,22.51
2018-11-05T17:44:14.269Z,22.51
2018-11-05T17:46:40.997Z,22.41
2018-11-05T17:49:07.663Z,22.51
2018-11-05T17:51:34.378Z,22.49
2018-11-05T17:54:01.193Z,22.47
2018-11-05T17:56:27.979Z,22.42
2018-11-05T17:58:54.688Z,22.40
2018-11-05T18:01:21.430Z,22.36
2018-11-05T18:03:48.215Z,22.33
2018-11-05T18:06:16.282Z,22.36
2018-11-05T18:08:41.556Z,22.31
2018-11-05T18:11:08.154Z,22.25
2018-11-05T18:13:34.881Z,22.28
2018-11-05T18:16:01.568Z,22.20
2018-11-05T18:18:28.223Z,22.20
2018-11-05T18:20:54.936Z,22.17
2018-11-05T18:23:21.648Z,22.11
2018-11-05T18:25:49.270Z,22.15
2018-11-05T18:28:15.954Z,22.12
2018-11-05T18:30:42.583Z,22.12
2018-11-05T18:33:09.388Z,22.08
2018-11-05T18:35:36.052Z,22.03
2018-11-05T18:38:02.802Z,22.04
2018-11-05T18:42:55.890Z,22.01
2018-11-05T18:45:22.587Z,21.96
2018-11-05T18:47:49.278Z,21.96
2018-11-05T18:50:18.117Z,21.93
2018-11-05T18:52:42.625Z,21.94
2018-11-05T18:55:09.361Z,21.92
2018-11-05T18:57:36.123Z,21.91
2018-11-05T19:00:02.825Z,21.88
2018-11-05T19:02:29.542Z,21.86
2018-11-05T19:04:58.550Z,21.83
2018-11-05T19:07:25.283Z,21.86
2018-11-05T19:09:52.039Z,21.83
2018-11-05T19:12:18.717Z,21.80
2018-11-05T19:14:45.503Z,21.79
2018-11-05T19:17:12.178Z,21.79
2018-11-05T19:19:40.169Z,21.78
2018-11-05T19:22:05.520Z,21.76
2018-11-05T19:24:32.486Z,21.76
2018-11-05T19:26:59.014Z,21.73
2018-11-05T19:29:25.660Z,21.70
2018-11-05T19:31:52.495Z,21.71
2018-11-05T19:34:19.206Z,21.68
2018-11-05T19:36:45.839Z,21.66
2018-11-05T19:39:12.536Z,21.59
2018-11-05T19:41:39.287Z,21.65
2018-11-05T19:44:05.910Z,21.63
2018-11-05T19:46:32.707Z,21.59
2018-11-05T19:48:59.456Z,21.59
2018-11-05T19:51:26.289Z,21.57
2018-11-05T19:53:52.972Z,21.54
2018-11-05T19:56:19.672Z,21.52
2018-11-05T19:58:46.295Z,21.52
2018-11-05T20:01:12.989Z,21.50
2018-11-05T20:03:39.640Z,21.50
2018-11-05T20:06:07.762Z,21.47
2018-11-05T20:08:33.092Z,21.49
2018-11-05T20:10:59.735Z,21.46
2018-11-05T20:13:29.230Z,21.44
2018-11-05T20:15:53.555Z,21.43
2018-11-05T20:18:20.275Z,21.41
2018-11-05T20:20:48.999Z,21.40
2018-11-05T20:23:13.716Z,21.39
2018-11-05T20:25:43.216Z,21.37
2018-11-05T20:28:09.992Z,21.34
2018-11-05T20:30:38.936Z,21.33
2018-11-05T20:33:04.857Z,21.30
2018-11-05T20:35:29.958Z,21.30
2018-11-05T20:38:05.453Z,21.30
2018-11-05T20:40:32.197Z,21.29
2018-11-05T20:42:58.756Z,21.28
2018-11-05T20:45:25.499Z,21.26
2018-11-05T20:47:52.151Z,21.21
2018-11-05T20:50:18.844Z,21.23
2018-11-05T20:52:45.512Z,21.24
2018-11-05T20:55:12.237Z,21.22
2018-11-05T20:57:38.904Z,21.20
2018-11-05T21:00:05.544Z,21.17
2018-11-05T21:02:32.239Z,21.16
2018-11-05T21:04:58.939Z,21.15
2018-11-05T21:07:25.664Z,21.15
2018-11-05T21:09:53.668Z,21.15
2018-11-05T21:12:21.161Z,21.12
2018-11-05T21:14:45.748Z,21.13
2018-11-05T21:17:12.460Z,21.11
2018-11-05T21:19:39.266Z,21.11
2018-11-05T21:22:05.895Z,21.07
2018-11-05T21:24:32.595Z,21.04
2018-11-05T21:27:02.461Z,21.04
2018-11-05T21:29:29.168Z,21.02
2018-11-05T21:31:55.768Z,21.03
2018-11-05T21:34:22.489Z,21.00
2018-11-05T21:36:49.155Z,21.01
2018-11-05T21:39:15.873Z,20.95
2018-11-05T21:41:42.626Z,20.94
2018-11-05T21:44:09.340Z,20.95
2018-11-05T21:46:37.403Z,20.94
2018-11-05T21:49:05.117Z,20.88
2018-11-05T21:51:31.938Z,20.90
2018-11-05T21:53:58.733Z,20.90
2018-11-05T21:56:25.259Z,20.89
2018-11-05T21:58:55.168Z,20.86
2018-11-05T22:01:23.283Z,20.87
2018-11-05T22:03:48.650Z,20.84
2018-11-05T22:06:15.296Z,20.82
2018-11-05T22:08:42.099Z,20.81
2018-11-05T22:11:08.788Z,20.79
2018-11-05T22:13:35.414Z,20.81
2018-11-05T22:16:02.053Z,20.79
2018-11-05T22:18:28.750Z,20.79
2018-11-05T22:20:55.465Z,20.78
2018-11-05T22:23:22.139Z,20.79
2018-11-05T22:25:48.870Z,20.76
2018-11-05T22:28:15.764Z,20.77
2018-11-05T22:30:42.413Z,20.74
2018-11-05T22:33:09.057Z,20.74
2018-11-05T22:35:35.853Z,20.71
2018-11-05T22:38:02.614Z,20.73
2018-11-05T22:40:29.438Z,20.71
2018-11-05T22:42:56.023Z,20.69
2018-11-05T22:45:22.774Z,20.69
2018-11-05T22:47:52.683Z,20.67
2018-11-05T22:50:19.474Z,20.67
2018-11-05T22:52:46.145Z,20.63
2018-11-05T22:55:12.849Z,20.63
2018-11-05T22:57:39.560Z,20.63
2018-11-05T23:00:06.163Z,20.62
2018-11-05T23:02:32.873Z,20.58
2018-11-05T23:04:59.533Z,20.59
2018-11-05T23:07:26.268Z,20.57
2018-11-05T23:09:53.029Z,20.55
2018-11-05T23:12:19.705Z,20.54
2018-11-05T23:14:46.342Z,20.55
2018-11-05T23:17:13.002Z,20.55
2018-11-05T23:19:39.699Z,20.52
2018-11-05T23:22:06.395Z,20.46
2018-11-05T23:24:35.534Z,20.44
2018-11-05T23:27:02.307Z,20.43
2018-11-05T23:29:28.978Z,20.42
2018-11-05T23:31:57.886Z,20.43
2018-11-05T23:34:24.582Z,20.41
2018-11-05T23:36:51.310Z,20.39
2018-11-05T23:39:17.962Z,20.39
2018-11-05T23:41:44.659Z,20.38
2018-11-05T23:44:11.410Z,20.37
2018-11-05T23:46:38.080Z,20.37
2018-11-05T23:49:06.465Z,20.37
2018-11-05T23:51:31.530Z,20.35
2018-11-05T23:54:01.418Z,20.35
2018-11-05T23:56:28.243Z,20.34
2018-11-05T23:58:54.883Z,20.32
